Wednesday, April 25, 2018, 12:23 PM GMT
Back to Local

CYHZ, Halifax International Airport

Location: , , Canada Lat: 44.883
Local Time: 12:23 PM GMT (12:23 GMT) Lon: -63.5
Time Zone: GMT Elev: 475 ft

Show me the last for .
Show Coded

Time T Td Feel RH Dir Speed Gust Alt SLP Vis Weather Sky Remarks
2018-04-25 12:00 46 37 39 70 210° 10 17 30.27 30.29 15 BKN280 None
2018-04-25 11:00 41 34 32 75 200° 10 17 30.27 30.29 15 BKN250 None
2018-04-25 10:00 37 32 30 80 200° 10 - 30.27 30.28 15 BKN250 None
2018-04-25 09:00 37 30 30 74 200° 12 - 30.26 30.27 15 BKN240 None
2018-04-25 08:00 36 30 29 80 190° 8 - 30.26 30.28 15 BKN240 None
2018-04-25 07:00 37 30 31 74 200° 9 - 30.27 30.28 15 OVC230 None
2018-04-25 06:00 37 28 30 69 210° 10 - 30.26 30.28 15 BKN250 None
2018-04-25 05:00 39 28 34 64 200° 8 - 30.27 30.28 15 BKN240 None
2018-04-25 04:00 41 30 35 65 200° 10 - 30.27 30.28 15 BKN240 None
2018-04-25 03:00 43 28 39 56 180° 7 - 30.27 30.29 15 BKN240 None
2018-04-25 02:00 45 28 39 52 220° 12 - 30.27 30.28 15 BKN240 None
2018-04-25 01:00 46 28 41 49 220° 13 - 30.27 30.29 15 SCT250 None
2018-04-25 00:00 50 27 44 39 220° 14 20 30.26 30.27 15 SCT250 None
2018-04-24 23:00 52 27 - 37 210° 15 - 30.24 30.26 15 BKN230 None
2018-04-24 22:00 55 28 - 35 200° 16 - 30.23 30.24 15 SCT260 None
2018-04-24 21:00 61 30 - 31 210° 13 21 30.22 30.24 15 SCT260 None
2018-04-24 20:01 63 30 - 29 200° 14 - 30.23 30.24 15 SCT250 None
2018-04-24 18:00 61 30 - 31 220° 18 28 30.25 30.27 15 BKN260 None
2018-04-24 17:00 63 30 - 29 220° 15 23 30.27 30.28 15 BKN260 None
2018-04-24 16:00 61 27 - 26 200° 15 23 30.30 30.31 15 BKN260 None
2018-04-24 15:00 59 25 - 26 240° 14 21 30.32 30.33 15 BKN260 None
2018-04-24 14:00 57 25 - 28 230° 14 - 30.34 30.35 15 SCT260 None
2018-04-24 13:00 52 23 - 32 220° 12 - 30.34 30.35 15 SCT260 None

Support USWX by starting your Amazon purchase here.